MST,Max TemperatureF,Mean TemperatureF,Min TemperatureF,Max Dew PointF,MeanDew PointF,Min DewpointF,Max Humidity, Mean Humidity, Min Humidity, Max Sea Level PressureIn, Mean Sea Level PressureIn, Min Sea Level PressureIn, Max VisibilityMiles, Mean VisibilityMiles, Min VisibilityMiles, Max Wind SpeedMPH, Mean Wind SpeedMPH, Max Gust SpeedMPH,PrecipitationIn, CloudCover, Events, WindDirDegrees
2012-11-1,54,45,36,34,30,25,76,55,39,29.96,29.89,29.81,10,10,10,17,11,,0.00,3,Rain,191
2012-11-2,48,40,31,30,27,21,88,66,35,30.19,30.09,29.97,10,10,10,10,6,,0.00,2,,178
2012-11-3,52,39,26,29,26,21,89,64,34,30.27,30.20,30.13,10,10,10,10,3,,0.00,1,,151
2012-11-4,54,43,32,33,29,26,89,62,40,30.42,30.31,30.20,10,10,10,10,6,,0.00,2,,112
2012-11-5,54,42,30,36,32,27,89,76,49,30.44,30.36,30.30,10,10,10,13,4,,0.00,0,,114
2012-11-6,59,46,32,38,33,27,97,74,39,30.34,30.24,30.09,10,10,10,10,4,,0.00,0,,152
2012-11-7,59,45,31,31,29,25,82,52,31,30.07,29.93,29.78,10,10,10,17,9,,0.00,2,,169
2012-11-8,55,44,32,35,30,25,89,64,31,29.76,29.60,29.45,10,10,10,33,7,25,0.01,5,Rain,177
2012-11-9,37,30,23,34,27,21,100,93,81,29.67,29.61,29.45,10,3,0,14,8,,0.08,8,Fog-Rain-Snow,36
2012-11-10,24,14,-1,21,16,-6,93,83,72,30.06,29.75,29.63,10,6,1,12,5,,0.00,8,Snow,208
2012-11-11,20,10,0,15,9,-6,92,81,59,30.44,30.18,29.99,10,7,1,14,5,,0.00,7,Snow,131
2012-11-12,28,22,15,21,17,9,93,77,58,30.53,30.41,30.32,10,9,3,12,7,,0.00,7,Snow,156
2012-11-13,32,28,23,28,25,21,93,86,73,30.40,30.33,30.22,10,10,3,8,3,,0.03,8,Snow,163
2012-11-14,32,30,28,31,29,24,100,92,70,30.32,30.23,30.20,10,5,0,12,6,,0.08,8,Fog-Snow,183
2012-11-15,36,24,12,27,21,9,100,91,59,30.43,30.33,30.22,10,5,0,9,3,,0.05,6,Fog,111
2012-11-16,45,32,18,31,26,12,84,70,48,30.21,30.09,30.01,10,10,10,13,7,,0.16,5,,171
2012-11-17,46,39,32,36,32,27,86,74,58,30.05,29.96,29.82,10,10,7,17,6,,0.02,7,Rain,169
2012-11-18,41,36,32,36,33,29,93,85,73,30.09,29.94,29.80,10,9,2,25,10,,0.12,7,Rain-Snow,173
2012-11-19,43,38,32,36,33,30,96,82,70,30.25,30.18,30.11,10,10,10,13,7,,0.01,8,Rain-Snow,177
2012-11-20,45,42,38,37,32,28,76,66,50,30.15,30.05,29.91,10,10,10,16,8,,0.00,7,,181
2012-11-21,45,38,30,36,31,25,93,74,48,30.10,29.92,29.82,10,9,2,26,13,,0.06,7,Rain-Snow,207
2012-11-22,32,26,21,25,20,15,92,75,48,30.56,30.38,30.10,10,10,10,13,6,,0.00,1,,149
2012-11-23,45,32,19,26,19,12,85,68,32,30.59,30.46,30.25,10,10,10,8,2,,0.00,0,,121
2012-11-24,41,36,32,34,27,17,93,67,38,30.19,30.09,29.95,10,10,5,21,10,,0.16,7,Rain-Snow,175
2012-11-25,36,31,25,34,30,19,96,90,74,30.19,30.00,29.89,10,6,1,13,9,,0.21,8,Snow,196
2012-11-26,32,21,10,20,14,6,88,78,55,30.41,30.30,30.19,10,10,10,8,3,,0.00,1,,110
2012-11-27,41,26,12,26,19,8,84,74,55,30.38,30.29,30.21,10,10,10,13,4,,0.05,0,,129
2012-11-28,47,35,23,32,23,17,79,63,35,30.24,30.10,29.91,10,10,10,14,6,,0.00,2,Rain,134
2012-11-29,45,40,35,34,30,27,93,75,52,30.05,30.00,29.94,10,10,10,15,9,,0.03,5,,181
2012-11-30,41,38,34,36,34,29,93,81,68,29.94,29.85,29.78,10,10,10,18,9,,0.22,8,Rain,192